Terminal Aerodrome Forecast
Issued by NWS

Current Version | Previous Version | Text Only | Print | Product List | Glossary On
Versions: 1 2 3 4 5 6 7 8 9 10 11 12 13 14 15 16 17 18 19 20
000
FTUS44 KLIX 292346
TAFHDC
TAF
KHDC 292346Z 3000/3024 14011G16KT P6SM SCT025 BKN045 BKN060
     FM300400 15010KT P6SM BKN018
     FM300900 16008KT 4SM -SHRA OVC015
      TEMPO 3010/3014 28020G30KT 2SM TSRA BKN025CB
     FM301400 16010KT 5SM -SHRA OVC030
     FM301700 19011KT 6SM -SHRA VCTS OVC050CB=

USA.gov is the U.S. government's official web portal to all federal, state and local government web resources and services.